TimeCST,TemperatureF,Dew PointF,Humidity,Sea Level PressureIn,VisibilityMPH,Wind Direction,Wind SpeedMPH,Gust SpeedMPH,PrecipitationIn,Events,Conditions,WindDirDegrees,DateUTC
12:53 AM,37.9,30.0,73,30.22,10.0,Calm,Calm,-,N/A,,Clear,0,2012-11-04 05:53:00
1:53 AM,34.0,28.9,82,30.21,9.0,Calm,Calm,-,N/A,,Clear,0,2012-11-04 07:53:00
2:53 AM,33.1,28.0,82,30.20,9.0,SSE,4.6,-,0.00,,Clear,160,2012-11-04 08:53:00
3:53 AM,34.0,28.9,82,30.20,9.0,Calm,Calm,-,N/A,,Clear,0,2012-11-04 09:53:00
4:53 AM,34.0,28.9,82,30.21,9.0,Calm,Calm,-,N/A,,Mostly Cloudy,0,2012-11-04 10:53:00
5:53 AM,34.0,30.0,85,30.22,8.0,SSE,4.6,-,N/A,,Overcast,160,2012-11-04 11:53:00
6:53 AM,37.0,32.0,82,30.23,8.0,SSE,3.5,-,N/A,,Mostly Cloudy,160,2012-11-04 12:53:00
7:53 AM,37.9,33.1,83,30.25,6.0,South,3.5,-,N/A,,Haze,190,2012-11-04 13:53:00
8:53 AM,43.0,37.0,80,30.24,7.0,South,4.6,-,N/A,,Mostly Cloudy,180,2012-11-04 14:53:00
9:53 AM,52.0,39.0,61,30.23,9.0,South,8.1,-,N/A,,Partly Cloudy,190,2012-11-04 15:53:00
10:53 AM,54.0,37.9,55,30.20,10.0,SSE,10.4,-,N/A,,Partly Cloudy,160,2012-11-04 16:53:00
11:53 AM,55.9,37.0,49,30.19,10.0,SSE,8.1,-,N/A,,Clear,160,2012-11-04 17:53:00
12:53 PM,57.9,37.0,46,30.14,10.0,South,8.1,-,N/A,,Clear,170,2012-11-04 18:53:00
1:53 PM,57.9,37.9,47,30.12,10.0,South,10.4,-,N/A,,Clear,170,2012-11-04 19:53:00
2:53 PM,57.9,37.9,47,30.09,10.0,SSE,12.7,-,N/A,,Clear,160,2012-11-04 20:53:00
3:53 PM,59.0,39.0,48,30.08,10.0,South,9.2,-,N/A,,Clear,170,2012-11-04 21:53:00
4:53 PM,57.0,37.9,49,30.07,10.0,SSE,9.2,-,N/A,,Clear,160,2012-11-04 22:53:00
5:53 PM,55.9,37.9,51,30.08,10.0,SE,8.1,-,N/A,,Clear,140,2012-11-04 23:53:00
6:53 PM,54.0,39.0,57,30.07,10.0,SE,9.2,-,N/A,,Clear,140,2012-11-05 00:53:00
7:53 PM,53.1,39.0,59,30.06,10.0,SE,8.1,-,N/A,,Mostly Cloudy,140,2012-11-05 01:53:00
8:53 PM,53.1,37.9,57,30.04,10.0,SSE,11.5,-,N/A,,Mostly Cloudy,150,2012-11-05 02:53:00
9:53 PM,53.1,37.9,57,30.04,10.0,SSE,6.9,-,N/A,,Overcast,160,2012-11-05 03:53:00
10:53 PM,53.1,37.9,57,30.05,10.0,SSW,5.8,-,N/A,,Overcast,210,2012-11-05 04:53:00